PGUA/UAM METAR and TAF weather

Enter ICAO airport designator
Station Type Date Time Source
PGUA METAR 2021/07/28 20:56 UTC NOAA

PGUA 282056Z VRB05KT 10SM SCT018 BKN170 25/24 A2988 RMK AO2A SHRAE03 SLP109 P0000 60000 T02530241 52011 $


Station Type Date Time Source
PGUA Decoded METAR 2021/07/28 20:56 UTC NOAA

Andersen, Mariana Is, Andersen Air Force Base, GU, United States (PGUA) 13-35N 144-56E 187M
Jul 28, 2021 - 04:56 PM EDT / 2021.07.28 2056 UTC
Wind: Variable at 6 MPH (5 KT):0
Visibility: 10 mile(s):0
Sky conditions: mostly cloudy
Precipitation last hour: A trace
Temperature: 77.5 F (25.3 C)
Dew Point: 75.4 F (24.1 C)
Relative Humidity: 93%
Pressure (altimeter): 29.88 in. Hg (1011 hPa)
Pressure tendency: 0.03 inches (1.1 hPa) higher than three hours ago
ob: PGUA 282056Z VRB05KT 10SM SCT018 BKN170 25/24 A2988 RMK AO2A SHRAE03 SLP109 P0000 60000 T02530241 52011
cycle: 21

Station Type Date Time Source
PGUA TAF 2021/07/28 18:18 UTC NOAA

TAF PGUA 281800Z 2818/2924 VRB06KT 9999 SCT015 BKN160 QNH2979INS
TEMPO 2818/2824 19010G15KT 4800 -SHRA BKN015
TEMPO 2906/2912 03010G15KT 4800 -SHRA BKN015
TEMPO 2918/2924 34010G15KT 4800 -SHRA BKN015 TX31/2902Z TN25/2917Z

Example: see airport list